createdAt,value
2022-11-25T00:01:12.543Z,11.64
2022-11-25T00:03:39.942Z,11.61
2022-11-25T00:06:18.034Z,11.75
2022-11-25T00:08:46.506Z,11.76
2022-11-25T00:11:14.588Z,11.28
2022-11-25T00:13:41.936Z,11.55
2022-11-25T00:16:13.410Z,11.76
2022-11-25T00:18:40.045Z,11.38
2022-11-25T00:21:08.738Z,11.70
2022-11-25T00:23:36.599Z,11.79
2022-11-25T00:26:14.816Z,11.75
2022-11-25T00:28:46.220Z,11.76
2022-11-25T00:31:39.779Z,11.78
2022-11-25T00:34:07.219Z,11.64
2022-11-25T00:36:35.927Z,11.39
2022-11-25T00:39:05.417Z,11.71
2022-11-25T00:41:50.463Z,11.54
2022-11-25T00:44:38.115Z,11.69
2022-11-25T00:47:14.189Z,11.65
2022-11-25T00:49:42.862Z,11.52
2022-11-25T00:52:12.405Z,11.69
2022-11-25T00:54:38.861Z,11.55
2022-11-25T00:57:05.407Z,11.48
2022-11-25T00:59:31.766Z,10.99
2022-11-25T01:01:58.273Z,11.41
2022-11-25T01:04:24.872Z,11.63
2022-11-25T01:06:51.255Z,11.50
2022-11-25T01:09:17.634Z,11.61
2022-11-25T01:11:44.346Z,11.72
2022-11-25T01:14:11.331Z,11.49
2022-11-25T01:16:37.958Z,11.51
2022-11-25T01:19:05.585Z,11.76
2022-11-25T01:21:34.253Z,11.66
2022-11-25T01:24:02.932Z,11.81
2022-11-25T01:26:30.293Z,11.55
2022-11-25T01:28:59.507Z,11.89
2022-11-25T01:31:27.980Z,11.81
2022-11-25T01:34:04.395Z,11.58
2022-11-25T01:36:31.094Z,11.61
2022-11-25T01:38:59.505Z,11.55
2022-11-25T01:41:28.611Z,11.95
2022-11-25T01:44:05.522Z,11.77
2022-11-25T01:47:30.793Z,11.90
2022-11-25T01:50:03.695Z,11.84
2022-11-25T01:52:36.742Z,11.89
2022-11-25T01:55:11.061Z,11.94
2022-11-25T01:57:45.968Z,11.95
2022-11-25T02:00:13.226Z,11.72
2022-11-25T02:02:39.870Z,11.70
2022-11-25T02:05:15.650Z,11.83
2022-11-25T02:07:45.161Z,11.89
2022-11-25T02:10:15.580Z,11.99
2022-11-25T02:12:44.965Z,11.88
2022-11-25T02:15:13.716Z,11.80
2022-11-25T02:17:40.643Z,11.86
2022-11-25T02:20:10.871Z,11.80
2022-11-25T02:22:56.928Z,11.95
2022-11-25T02:25:31.079Z,12.03
2022-11-25T02:28:05.948Z,11.55
2022-11-25T02:30:33.770Z,12.02
2022-11-25T02:33:00.938Z,11.91
2022-11-25T02:35:29.288Z,11.97
2022-11-25T02:38:00.329Z,11.81
2022-11-25T02:40:28.608Z,11.86
2022-11-25T02:42:58.722Z,11.89
2022-11-25T02:45:35.476Z,11.82
2022-11-25T02:48:01.845Z,12.01
2022-11-25T02:50:28.196Z,12.09
2022-11-25T02:52:54.519Z,11.99
2022-11-25T02:55:20.982Z,11.95
2022-11-25T02:57:47.288Z,11.94
2022-11-25T03:00:14.206Z,12.03
2022-11-25T03:02:40.668Z,12.04
2022-11-25T03:05:07.262Z,11.50
2022-11-25T03:07:33.598Z,11.93
2022-11-25T03:10:00.036Z,12.02
2022-11-25T03:12:26.435Z,12.03
2022-11-25T03:14:52.814Z,11.87
2022-11-25T03:17:19.332Z,11.93
2022-11-25T03:19:45.759Z,12.11
2022-11-25T03:22:12.188Z,11.94
2022-11-25T03:24:38.689Z,12.06
2022-11-25T03:27:05.245Z,12.06
2022-11-25T03:29:31.783Z,12.23
2022-11-25T03:31:58.174Z,11.67
2022-11-25T03:34:24.536Z,12.14
2022-11-25T03:36:50.948Z,12.02
2022-11-25T03:39:17.319Z,12.13
2022-11-25T03:41:43.686Z,12.14
2022-11-25T03:44:10.008Z,11.93
2022-11-25T03:46:36.345Z,12.07
2022-11-25T03:49:02.966Z,12.17
2022-11-25T03:51:29.472Z,12.45
2022-11-25T03:53:55.851Z,12.14
2022-11-25T03:56:22.189Z,12.47
2022-11-25T03:58:48.638Z,12.33
2022-11-25T04:01:15.033Z,12.12
2022-11-25T04:03:41.511Z,11.91
2022-11-25T04:06:07.895Z,12.01
2022-11-25T04:08:34.209Z,11.56
2022-11-25T04:11:00.695Z,11.61
2022-11-25T04:13:27.054Z,11.83
2022-11-25T04:15:53.471Z,12.15
2022-11-25T04:18:20.385Z,12.04
2022-11-25T04:20:47.017Z,12.11
2022-11-25T04:23:14.461Z,12.20
2022-11-25T04:25:40.934Z,12.21
2022-11-25T04:28:07.249Z,11.89
2022-11-25T04:30:34.123Z,12.05
2022-11-25T04:33:01.837Z,12.32
2022-11-25T04:35:28.202Z,12.09
2022-11-25T04:37:54.561Z,11.62
2022-11-25T04:40:20.921Z,11.62
2022-11-25T04:42:47.479Z,11.70
2022-11-25T04:45:24.044Z,11.66
2022-11-25T04:47:51.466Z,11.76
2022-11-25T04:50:21.056Z,11.94
2022-11-25T04:52:47.380Z,11.69
2022-11-25T04:55:13.798Z,11.80
2022-11-25T04:57:40.299Z,11.97
2022-11-25T05:00:07.925Z,11.87
2022-11-25T05:02:34.353Z,11.89
2022-11-25T05:05:01.374Z,12.20
2022-11-25T05:07:28.923Z,12.11
2022-11-25T05:09:56.216Z,12.11
2022-11-25T05:12:25.932Z,11.96
2022-11-25T05:14:52.747Z,11.99
2022-11-25T05:17:22.381Z,12.00
2022-11-25T05:19:49.698Z,11.96
2022-11-25T05:22:18.238Z,12.00
2022-11-25T05:24:44.705Z,12.05
2022-11-25T05:27:11.685Z,12.06
2022-11-25T05:29:38.181Z,12.13
2022-11-25T05:32:05.209Z,12.22
2022-11-25T05:34:31.806Z,11.93
2022-11-25T05:36:58.607Z,11.83
2022-11-25T05:39:25.431Z,12.15
2022-11-25T05:41:51.908Z,12.17
2022-11-25T05:44:22.723Z,12.17
2022-11-25T05:46:50.235Z,12.27
2022-11-25T05:49:17.604Z,12.22
2022-11-25T05:51:44.244Z,12.25
2022-11-25T05:54:10.881Z,12.24
2022-11-25T05:56:37.333Z,11.91
2022-11-25T05:59:04.796Z,11.79
2022-11-25T06:01:31.790Z,12.11
2022-11-25T06:04:04.873Z,12.15
2022-11-25T06:06:32.118Z,12.23
2022-11-25T06:08:58.786Z,12.10
2022-11-25T06:11:28.082Z,11.98
2022-11-25T06:13:57.396Z,11.82
2022-11-25T06:16:24.760Z,12.06
2022-11-25T06:18:51.455Z,11.67
2022-11-25T06:21:18.014Z,12.06
2022-11-25T06:23:47.090Z,12.03
2022-11-25T06:26:19.513Z,12.11
2022-11-25T06:28:46.433Z,11.77
2022-11-25T06:31:18.597Z,12.00
2022-11-25T06:33:49.832Z,11.85
2022-11-25T06:36:17.508Z,11.79
2022-11-25T06:38:45.195Z,11.36
2022-11-25T06:41:11.588Z,11.93
2022-11-25T06:43:38.077Z,11.79
2022-11-25T06:46:12.805Z,11.75
2022-11-25T06:48:40.308Z,11.85
2022-11-25T06:51:16.369Z,11.87
2022-11-25T06:53:42.728Z,11.70
2022-11-25T06:56:15.942Z,11.78
2022-11-25T06:58:43.976Z,11.67
2022-11-25T07:01:19.081Z,11.58
2022-11-25T07:03:47.105Z,11.27
2022-11-25T07:06:15.578Z,11.56
2022-11-25T07:08:42.533Z,11.55
2022-11-25T07:11:17.102Z,11.61
2022-11-25T07:13:43.838Z,11.50
2022-11-25T07:16:11.826Z,11.66
2022-11-25T07:18:39.528Z,11.54
2022-11-25T07:21:11.412Z,11.57
2022-11-25T07:23:38.522Z,11.63
2022-11-25T07:26:21.529Z,11.25
2022-11-25T07:28:49.387Z,11.29
2022-11-25T07:31:28.688Z,11.56
2022-11-25T07:34:00.749Z,11.50
2022-11-25T07:36:28.275Z,11.55
2022-11-25T07:38:54.879Z,11.48
2022-11-25T07:41:23.952Z,11.32
2022-11-25T07:43:52.708Z,11.51
2022-11-25T07:46:26.302Z,11.55
2022-11-25T07:48:54.260Z,11.48
2022-11-25T07:51:27.152Z,11.51
2022-11-25T07:53:55.224Z,11.24
2022-11-25T07:56:21.759Z,11.60
2022-11-25T07:58:48.274Z,11.37
2022-11-25T08:01:17.033Z,11.58
2022-11-25T08:03:44.527Z,11.26
2022-11-25T08:06:16.629Z,11.71
2022-11-25T08:08:44.055Z,11.41
2022-11-25T08:11:14.340Z,11.46
2022-11-25T08:13:41.110Z,11.38
2022-11-25T08:16:08.634Z,11.80
2022-11-25T08:18:35.106Z,11.85
2022-11-25T08:21:06.914Z,11.68
2022-11-25T08:23:34.397Z,11.95
2022-11-25T08:26:13.239Z,12.08
2022-11-25T08:28:41.363Z,12.02
2022-11-25T08:31:10.917Z,12.06
2022-11-25T08:33:37.718Z,12.08
2022-11-25T08:36:04.944Z,11.79
2022-11-25T08:38:31.655Z,12.03
2022-11-25T08:40:58.377Z,12.08
2022-11-25T08:43:29.419Z,12.32
2022-11-25T08:45:56.378Z,12.05
2022-11-25T08:48:22.788Z,12.28
2022-11-25T08:50:52.643Z,12.38
2022-11-25T08:53:21.115Z,12.42
2022-11-25T08:55:48.265Z,12.32
2022-11-25T08:58:14.626Z,12.13
2022-11-25T09:00:43.076Z,12.33
2022-11-25T09:03:10.500Z,12.32
2022-11-25T09:05:45.360Z,12.52
2022-11-25T09:08:12.438Z,12.64
2022-11-25T09:10:39.689Z,12.51
2022-11-25T09:13:06.463Z,12.36
2022-11-25T09:15:34.699Z,12.77
2022-11-25T09:18:03.752Z,12.70
2022-11-25T09:20:31.137Z,12.29
2022-11-25T09:23:00.120Z,12.64
2022-11-25T09:25:27.675Z,12.72
2022-11-25T09:27:55.546Z,12.70
2022-11-25T09:30:22.897Z,12.81
2022-11-25T09:32:51.691Z,12.66
2022-11-25T09:35:19.061Z,12.51
2022-11-25T09:37:45.663Z,12.80
2022-11-25T09:40:50.912Z,12.74
2022-11-25T09:43:46.189Z,12.98
2022-11-25T09:46:42.509Z,13.16
2022-11-25T09:49:40.562Z,13.11
2022-11-25T09:52:28.259Z,13.31
2022-11-25T09:55:11.421Z,13.36
2022-11-25T09:58:01.911Z,13.28
2022-11-25T10:00:38.562Z,13.17
2022-11-25T10:03:23.532Z,13.32
2022-11-25T10:06:08.188Z,13.49
2022-11-25T10:08:39.298Z,13.68
2022-11-25T10:11:48.047Z,13.85
2022-11-25T10:14:41.907Z,13.65
2022-11-25T10:17:28.840Z,13.88
2022-11-25T10:20:07.182Z,13.84
2022-11-25T10:22:36.375Z,13.97
2022-11-25T10:25:15.612Z,13.82
2022-11-25T10:27:44.645Z,13.86
2022-11-25T10:30:23.794Z,13.82
2022-11-25T10:33:00.762Z,14.16
2022-11-25T10:35:34.820Z,14.16
2022-11-25T10:38:05.440Z,14.08
2022-11-25T10:40:31.956Z,14.00
2022-11-25T10:43:01.000Z,14.50
2022-11-25T10:45:40.560Z,14.24
2022-11-25T10:48:18.340Z,13.98
2022-11-25T10:51:20.352Z,13.96
2022-11-25T10:54:14.699Z,14.49
2022-11-25T10:56:49.441Z,14.27
2022-11-25T10:59:31.269Z,14.57
2022-11-25T11:02:26.944Z,14.06
2022-11-25T11:04:57.728Z,14.12
2022-11-25T11:07:29.570Z,14.26
2022-11-25T11:10:15.513Z,14.13
2022-11-25T11:13:19.869Z,14.62
2022-11-25T11:15:54.889Z,13.93
2022-11-25T11:18:29.303Z,14.42
2022-11-25T11:20:57.340Z,14.27
2022-11-25T11:23:25.081Z,14.39
2022-11-25T11:26:28.696Z,14.76
2022-11-25T11:29:01.214Z,15.03
2022-11-25T11:31:33.271Z,15.19
2022-11-25T11:34:05.651Z,14.80
2022-11-25T11:37:12.319Z,14.87
2022-11-25T11:40:00.144Z,14.58
2022-11-25T11:42:41.438Z,14.58
2022-11-25T11:45:42.338Z,14.29
2022-11-25T11:48:39.298Z,13.99
2022-11-25T11:51:27.503Z,14.18
2022-11-25T11:54:18.050Z,14.18
2022-11-25T11:56:52.058Z,14.19
2022-11-25T11:59:46.914Z,13.94
2022-11-25T12:02:52.521Z,14.12
2022-11-25T12:05:22.045Z,13.96
2022-11-25T12:08:28.341Z,14.02
2022-11-25T12:10:58.137Z,14.48
2022-11-25T12:13:56.513Z,14.55
2022-11-25T12:16:32.333Z,14.54
2022-11-25T12:19:39.560Z,14.55
2022-11-25T12:22:32.270Z,14.61
2022-11-25T12:25:08.724Z,14.20
2022-11-25T12:28:10.361Z,14.51
2022-11-25T12:31:06.271Z,14.48
2022-11-25T12:33:44.125Z,14.39
2022-11-25T12:36:17.743Z,14.30
2022-11-25T12:38:53.423Z,14.39
2022-11-25T12:41:19.664Z,14.66
2022-11-25T12:43:48.959Z,14.57
2022-11-25T12:46:28.507Z,14.35
2022-11-25T12:48:58.194Z,14.78
2022-11-25T12:51:51.079Z,14.52
2022-11-25T12:54:54.675Z,14.80
2022-11-25T12:57:30.305Z,14.89
2022-11-25T13:00:46.556Z,14.96
2022-11-25T13:03:45.861Z,14.79
2022-11-25T13:06:22.664Z,14.65
2022-11-25T13:08:55.742Z,14.99
2022-11-25T13:11:31.664Z,14.98
2022-11-25T13:14:14.337Z,14.84
2022-11-25T13:16:45.412Z,14.49
2022-11-25T13:19:16.626Z,13.86
2022-11-25T13:22:18.218Z,14.73
2022-11-25T13:24:47.654Z,14.45
2022-11-25T13:27:35.907Z,14.59
2022-11-25T13:30:03.198Z,14.54
2022-11-25T13:32:35.221Z,14.73
2022-11-25T13:35:26.287Z,14.79
2022-11-25T13:37:53.410Z,14.49
2022-11-25T13:40:22.872Z,14.55
2022-11-25T13:42:53.314Z,14.38
2022-11-25T13:45:43.320Z,14.46
2022-11-25T13:48:21.237Z,14.67
2022-11-25T13:51:10.610Z,14.70
2022-11-25T13:53:39.827Z,13.69
2022-11-25T13:56:25.316Z,14.26
2022-11-25T13:59:12.222Z,15.08
2022-11-25T14:01:52.421Z,14.96
2022-11-25T14:04:43.026Z,14.76
2022-11-25T14:07:26.711Z,14.58
2022-11-25T14:10:54.829Z,14.75
2022-11-25T14:13:50.991Z,14.30
2022-11-25T14:16:35.625Z,14.82
2022-11-25T14:19:51.144Z,14.97
2022-11-25T14:22:30.900Z,14.65
2022-11-25T14:25:25.590Z,14.72
2022-11-25T14:28:03.923Z,14.76
2022-11-25T14:30:32.608Z,14.77
2022-11-25T14:33:03.652Z,14.57
2022-11-25T14:35:35.493Z,14.58
2022-11-25T14:38:13.515Z,14.46
2022-11-25T14:41:00.327Z,14.79
2022-11-25T14:43:28.856Z,14.63
2022-11-25T14:46:15.534Z,14.69
2022-11-25T14:48:43.722Z,14.61
2022-11-25T14:51:18.438Z,14.39
2022-11-25T14:53:50.449Z,14.55
2022-11-25T14:56:55.426Z,14.52
2022-11-25T14:59:22.080Z,14.19
2022-11-25T15:01:54.961Z,14.04
2022-11-25T15:04:24.325Z,14.46
2022-11-25T15:06:53.973Z,13.83
2022-11-25T15:09:29.324Z,13.56
2022-11-25T15:12:00.669Z,13.76
2022-11-25T15:14:27.028Z,14.09
2022-11-25T15:16:54.220Z,14.28
2022-11-25T15:19:25.297Z,13.19
2022-11-25T15:24:53.291Z,14.21
2022-11-25T15:27:28.671Z,14.29
2022-11-25T15:29:56.993Z,14.24
2022-11-25T15:32:29.799Z,13.60
2022-11-25T15:34:59.021Z,14.21
2022-11-25T15:37:25.985Z,13.57
2022-11-25T15:40:31.409Z,14.26
2022-11-25T15:43:04.339Z,14.07
2022-11-25T15:45:53.990Z,13.70
2022-11-25T15:48:38.403Z,13.57
2022-11-25T15:51:23.142Z,14.07
2022-11-25T15:53:56.386Z,13.72
2022-11-25T15:56:26.910Z,13.38
2022-11-25T15:58:58.636Z,14.03
2022-11-25T16:01:31.750Z,14.19
2022-11-25T16:04:19.833Z,13.75
2022-11-25T16:07:06.435Z,13.74
2022-11-25T16:10:02.154Z,13.85
2022-11-25T16:12:28.514Z,12.85
2022-11-25T16:14:54.856Z,13.85
2022-11-25T16:20:28.508Z,12.44
2022-11-25T16:22:56.127Z,12.50
2022-11-25T16:25:22.845Z,12.97
2022-11-25T16:27:49.386Z,12.86
2022-11-25T16:30:20.163Z,13.29
2022-11-25T16:32:46.576Z,12.84
2022-11-25T16:35:15.595Z,12.92
2022-11-25T16:37:47.199Z,13.29
2022-11-25T16:40:17.078Z,13.28
2022-11-25T16:42:49.142Z,13.28
2022-11-25T16:45:27.369Z,13.29
2022-11-25T16:47:54.436Z,12.72
2022-11-25T16:50:22.033Z,13.20
2022-11-25T16:52:49.697Z,13.28
2022-11-25T16:55:18.364Z,12.90
2022-11-25T16:57:46.933Z,12.71
2022-11-25T17:00:17.660Z,13.06
2022-11-25T17:02:44.844Z,12.95
2022-11-25T17:05:25.261Z,13.12
2022-11-25T17:07:53.581Z,13.06
2022-11-25T17:10:20.648Z,12.94
2022-11-25T17:12:47.648Z,12.52
2022-11-25T17:15:24.302Z,12.96
2022-11-25T17:17:51.094Z,11.87
2022-11-25T17:20:21.763Z,13.05
2022-11-25T17:22:49.076Z,13.14
2022-11-25T17:25:15.602Z,12.83
2022-11-25T17:27:42.810Z,12.13
2022-11-25T17:30:22.348Z,12.98
2022-11-25T17:33:02.757Z,12.24
2022-11-25T17:35:29.394Z,12.20
2022-11-25T17:37:57.954Z,13.13
2022-11-25T17:40:24.527Z,12.38
2022-11-25T17:42:52.564Z,13.06
2022-11-25T17:45:21.358Z,13.14
2022-11-25T17:47:48.170Z,13.18
2022-11-25T17:50:23.589Z,13.11
2022-11-25T17:52:51.544Z,13.04
2022-11-25T17:55:19.833Z,13.02
2022-11-25T17:57:48.303Z,13.12
2022-11-25T18:00:17.844Z,13.07
2022-11-25T18:02:44.279Z,12.61
2022-11-25T18:05:14.731Z,12.94
2022-11-25T18:07:43.770Z,12.47
2022-11-25T18:10:14.421Z,12.89
2022-11-25T18:12:42.709Z,11.59
2022-11-25T18:15:19.435Z,12.93
2022-11-25T18:17:47.003Z,12.68
2022-11-25T18:20:21.080Z,12.87
2022-11-25T18:22:47.814Z,12.85
2022-11-25T18:25:38.984Z,12.89
2022-11-25T18:28:05.602Z,12.67
2022-11-25T18:30:34.038Z,12.80
2022-11-25T18:33:01.552Z,12.67
2022-11-25T18:35:35.665Z,12.94
2022-11-25T18:38:02.722Z,12.70
2022-11-25T18:40:29.740Z,12.12
2022-11-25T18:43:00.480Z,12.56
2022-11-25T18:45:38.494Z,12.84
2022-11-25T18:48:17.315Z,12.56
2022-11-25T18:50:45.037Z,12.63
2022-11-25T18:53:11.796Z,12.91
2022-11-25T18:55:38.317Z,12.27
2022-11-25T18:58:15.283Z,12.66
2022-11-25T19:00:41.955Z,12.13
2022-11-25T19:03:17.406Z,11.88
2022-11-25T19:05:43.937Z,12.63
2022-11-25T19:08:10.413Z,12.55
2022-11-25T19:10:38.832Z,11.82
2022-11-25T19:13:08.739Z,11.70
2022-11-25T19:15:37.381Z,12.53
2022-11-25T19:18:06.348Z,11.66
2022-11-25T19:20:33.122Z,12.01
2022-11-25T19:23:11.639Z,12.60
2022-11-25T19:25:37.946Z,11.90
2022-11-25T19:28:04.493Z,12.32
2022-11-25T19:30:32.254Z,12.36
2022-11-25T19:33:01.164Z,12.64
2022-11-25T19:35:33.249Z,12.70
2022-11-25T19:37:59.613Z,12.48
2022-11-25T19:40:26.290Z,12.48
2022-11-25T19:42:52.673Z,11.85
2022-11-25T19:45:20.982Z,12.51
2022-11-25T19:47:50.449Z,11.47
2022-11-25T19:50:23.505Z,12.42
2022-11-25T19:52:50.758Z,12.45
2022-11-25T19:55:18.963Z,11.18
2022-11-25T19:57:45.760Z,11.01
2022-11-25T20:00:14.422Z,12.40
2022-11-25T20:02:42.332Z,11.88
2022-11-25T20:05:09.543Z,12.39
2022-11-25T20:07:36.443Z,11.34
2022-11-25T20:10:19.503Z,11.98
2022-11-25T20:12:45.927Z,11.68
2022-11-25T20:15:13.020Z,12.04
2022-11-25T20:17:43.075Z,12.23
2022-11-25T20:20:22.462Z,11.80
2022-11-25T20:23:08.952Z,11.60
2022-11-25T20:25:43.410Z,11.76
2022-11-25T20:28:22.856Z,11.51
2022-11-25T20:30:50.639Z,12.03
2022-11-25T20:33:24.079Z,11.48
2022-11-25T20:35:58.451Z,12.10
2022-11-25T20:38:27.581Z,11.86
2022-11-25T20:40:57.784Z,12.10
2022-11-25T20:43:34.424Z,11.94
2022-11-25T20:46:02.473Z,12.07
2022-11-25T20:48:29.925Z,11.17
2022-11-25T20:50:59.940Z,11.88
2022-11-25T20:53:27.987Z,11.82
2022-11-25T20:55:54.329Z,11.47
2022-11-25T20:58:25.242Z,11.93
2022-11-25T21:01:01.126Z,10.90
2022-11-25T21:03:27.521Z,11.24
2022-11-25T21:05:55.334Z,11.32
2022-11-25T21:08:24.245Z,11.58
2022-11-25T21:10:53.816Z,11.85
2022-11-25T21:13:26.417Z,11.15
2022-11-25T21:15:53.937Z,11.76
2022-11-25T21:18:21.440Z,11.56
2022-11-25T21:20:53.615Z,11.74
2022-11-25T21:23:22.691Z,11.69
2022-11-25T21:25:50.304Z,10.81
2022-11-25T21:28:20.329Z,10.96
2022-11-25T21:30:49.497Z,11.44
2022-11-25T21:33:16.407Z,11.50
2022-11-25T21:35:46.711Z,11.09
2022-11-25T21:38:27.241Z,11.38
2022-11-25T21:40:56.095Z,10.61
2022-11-25T21:43:40.532Z,11.31
2022-11-25T21:46:12.506Z,11.32
2022-11-25T21:48:39.951Z,10.98
2022-11-25T21:51:06.362Z,10.95
2022-11-25T21:53:37.157Z,10.57
2022-11-25T21:56:14.161Z,11.36
2022-11-25T21:58:40.731Z,11.17
2022-11-25T22:01:10.669Z,10.49
2022-11-25T22:03:37.056Z,9.98
2022-11-25T22:06:03.705Z,10.83
2022-11-25T22:08:30.385Z,10.74
2022-11-25T22:10:56.844Z,10.66
2022-11-25T22:13:30.101Z,10.72
2022-11-25T22:15:58.232Z,10.58
2022-11-25T22:18:34.401Z,10.66
2022-11-25T22:21:01.835Z,10.58
2022-11-25T22:23:30.768Z,10.45
2022-11-25T22:25:57.196Z,10.25
2022-11-25T22:28:30.711Z,10.69
2022-11-25T22:31:04.823Z,10.87
2022-11-25T22:33:33.647Z,10.40
2022-11-25T22:36:00.658Z,10.82
2022-11-25T22:38:29.174Z,10.72
2022-11-25T22:40:59.283Z,10.01
2022-11-25T22:43:29.612Z,10.80
2022-11-25T22:45:56.788Z,10.51
2022-11-25T22:48:30.875Z,9.45
2022-11-25T22:51:00.083Z,10.57
2022-11-25T22:53:26.435Z,10.03
2022-11-25T22:55:56.735Z,9.80
2022-11-25T22:58:24.056Z,10.34
2022-11-25T23:00:51.482Z,10.39
2022-11-25T23:03:26.677Z,10.60
2022-11-25T23:05:54.253Z,10.57
2022-11-25T23:08:28.979Z,9.97
2022-11-25T23:10:56.147Z,10.58
2022-11-25T23:13:26.427Z,10.32
2022-11-25T23:15:59.963Z,9.56
2022-11-25T23:18:34.106Z,10.37
2022-11-25T23:21:05.560Z,10.39
2022-11-25T23:23:35.244Z,10.51
2022-11-25T23:26:02.014Z,9.62
2022-11-25T23:28:28.414Z,9.79
2022-11-25T23:31:00.702Z,10.50
2022-11-25T23:33:32.835Z,10.48
2022-11-25T23:36:02.536Z,10.42
2022-11-25T23:38:31.306Z,10.42
2022-11-25T23:40:57.840Z,9.82
2022-11-25T23:43:26.719Z,9.71
2022-11-25T23:45:56.014Z,10.38
2022-11-25T23:48:27.718Z,9.01
2022-11-25T23:50:58.116Z,9.69
2022-11-25T23:53:29.206Z,10.52
2022-11-25T23:55:55.839Z,9.21
2022-11-25T23:58:25.739Z,10.46
